sensor_id;sensor_type;location;lat;lon;timestamp;pressure;altitude;pressure_sealevel;temperature;humidity
46303;BME280;32029;51.358;5.628;2023-06-22T00:01:20;101607.59;;;23.15;68.70
46303;BME280;32029;51.358;5.628;2023-06-22T00:03:49;101586.38;;;23.02;68.61
46303;BME280;32029;51.358;5.628;2023-06-22T00:06:16;101600.44;;;23.07;69.15
46303;BME280;32029;51.358;5.628;2023-06-22T00:08:43;101591.84;;;22.97;69.62
46303;BME280;32029;51.358;5.628;2023-06-22T00:11:10;101610.09;;;22.99;69.98
46303;BME280;32029;51.358;5.628;2023-06-22T00:13:37;101605.28;;;22.95;69.88
46303;BME280;32029;51.358;5.628;2023-06-22T00:16:05;101598.09;;;22.87;69.62
46303;BME280;32029;51.358;5.628;2023-06-22T00:18:33;101610.13;;;22.88;69.98
46303;BME280;32029;51.358;5.628;2023-06-22T00:21:00;101607.81;;;22.85;69.97
46303;BME280;32029;51.358;5.628;2023-06-22T00:23:26;101590.88;;;22.74;70.55
46303;BME280;32029;51.358;5.628;2023-06-22T00:25:54;101604.94;;;22.80;70.84
46303;BME280;32029;51.358;5.628;2023-06-22T00:28:21;101598.16;;;22.75;71.19
46303;BME280;32029;51.358;5.628;2023-06-22T00:30:49;101588.78;;;22.70;71.64
46303;BME280;32029;51.358;5.628;2023-06-22T00:33:16;101600.72;;;22.65;71.79
46303;BME280;32029;51.358;5.628;2023-06-22T00:35:43;101594.19;;;22.60;71.84
46303;BME280;32029;51.358;5.628;2023-06-22T00:38:11;101584.84;;;22.54;72.82
46303;BME280;32029;51.358;5.628;2023-06-22T00:40:38;101586.69;;;22.48;72.89
46303;BME280;32029;51.358;5.628;2023-06-22T00:43:06;101569.00;;;22.31;73.05
46303;BME280;32029;51.358;5.628;2023-06-22T00:45:34;101581.91;;;22.32;73.75
46303;BME280;32029;51.358;5.628;2023-06-22T00:48:02;101587.47;;;22.32;73.64
46303;BME280;32029;51.358;5.628;2023-06-22T00:50:33;101584.56;;;22.27;74.13
46303;BME280;32029;51.358;5.628;2023-06-22T00:53:04;101587.25;;;22.22;74.31
46303;BME280;32029;51.358;5.628;2023-06-22T00:55:41;101587.03;;;22.12;74.66
46303;BME280;32029;51.358;5.628;2023-06-22T00:58:19;101564.91;;;21.98;74.98
46303;BME280;32029;51.358;5.628;2023-06-22T01:00:48;101592.84;;;22.10;75.71
46303;BME280;32029;51.358;5.628;2023-06-22T01:03:16;101572.31;;;22.05;75.92
46303;BME280;32029;51.358;5.628;2023-06-22T01:05:46;101575.25;;;21.98;75.89
46303;BME280;32029;51.358;5.628;2023-06-22T01:08:31;101572.19;;;21.99;76.48
46303;BME280;32029;51.358;5.628;2023-06-22T01:11:21;101561.66;;;21.90;76.81
46303;BME280;32029;51.358;5.628;2023-06-22T01:14:00;101566.97;;;21.91;77.11
46303;BME280;32029;51.358;5.628;2023-06-22T01:16:30;101565.78;;;21.87;77.17
46303;BME280;32029;51.358;5.628;2023-06-22T01:19:02;101576.34;;;21.85;77.50
46303;BME280;32029;51.358;5.628;2023-06-22T01:21:35;101563.63;;;21.77;77.38
46303;BME280;32029;51.358;5.628;2023-06-22T01:24:18;101575.16;;;21.81;77.79
46303;BME280;32029;51.358;5.628;2023-06-22T01:29:31;101541.66;;;21.58;78.28
46303;BME280;32029;51.358;5.628;2023-06-22T01:32:00;101576.72;;;21.77;78.87
46303;BME280;32029;51.358;5.628;2023-06-22T01:34:30;101575.00;;;21.76;79.03
46303;BME280;32029;51.358;5.628;2023-06-22T01:36:59;101573.94;;;21.77;78.76
46303;BME280;32029;51.358;5.628;2023-06-22T01:39:27;101580.59;;;21.76;79.38
46303;BME280;32029;51.358;5.628;2023-06-22T01:41:55;101575.00;;;21.76;79.24
46303;BME280;32029;51.358;5.628;2023-06-22T01:44:24;101572.22;;;21.76;79.68
46303;BME280;32029;51.358;5.628;2023-06-22T01:46:52;101570.53;;;21.75;79.64
46303;BME280;32029;51.358;5.628;2023-06-22T01:49:19;101572.22;;;21.76;80.15
46303;BME280;32029;51.358;5.628;2023-06-22T01:51:46;101566.63;;;21.76;80.19
46303;BME280;32029;51.358;5.628;2023-06-22T01:54:13;101571.38;;;21.75;80.15
46303;BME280;32029;51.358;5.628;2023-06-22T01:56:40;101569.69;;;21.74;80.30
46303;BME280;32029;51.358;5.628;2023-06-22T01:59:29;101565.19;;;21.73;80.84
46303;BME280;32029;51.358;5.628;2023-06-22T02:02:08;101537.75;;;21.59;80.81
46303;BME280;32029;51.358;5.628;2023-06-22T02:04:56;101558.16;;;21.71;80.72
46303;BME280;32029;51.358;5.628;2023-06-22T02:07:29;101562.03;;;21.70;80.99
46303;BME280;32029;51.358;5.628;2023-06-22T02:09:59;101552.44;;;21.66;81.24
46303;BME280;32029;51.358;5.628;2023-06-22T02:12:28;101549.41;;;21.67;81.35
46303;BME280;32029;51.358;5.628;2023-06-22T02:14:57;101549.66;;;21.66;81.36
46303;BME280;32029;51.358;5.628;2023-06-22T02:17:25;101539.09;;;21.56;81.88
46303;BME280;32029;51.358;5.628;2023-06-22T02:19:52;101551.81;;;21.64;81.87
46303;BME280;32029;51.358;5.628;2023-06-22T02:22:19;101542.88;;;21.62;82.09
46303;BME280;32029;51.358;5.628;2023-06-22T02:24:46;101520.16;;;21.46;82.21
46303;BME280;32029;51.358;5.628;2023-06-22T02:27:12;101541.13;;;21.61;81.98
46303;BME280;32029;51.358;5.628;2023-06-22T02:29:39;101487.84;;;21.27;82.34
46303;BME280;32029;51.358;5.628;2023-06-22T02:32:06;101534.34;;;21.57;82.41
46303;BME280;32029;51.358;5.628;2023-06-22T02:34:33;101510.81;;;21.41;82.59
46303;BME280;32029;51.358;5.628;2023-06-22T02:37:00;101521.25;;;21.45;82.89
46303;BME280;32029;51.358;5.628;2023-06-22T02:39:29;101540.44;;;21.53;82.88
46303;BME280;32029;51.358;5.628;2023-06-22T02:41:56;101531.06;;;21.48;83.31
46303;BME280;32029;51.358;5.628;2023-06-22T02:44:23;101534.22;;;21.51;83.50
46303;BME280;32029;51.358;5.628;2023-06-22T02:46:50;101510.22;;;21.39;83.24
46303;BME280;32029;51.358;5.628;2023-06-22T02:49:17;101527.44;;;21.47;83.61
46303;BME280;32029;51.358;5.628;2023-06-22T02:51:48;101532.91;;;21.54;83.43
46303;BME280;32029;51.358;5.628;2023-06-22T02:54:15;101537.66;;;21.53;83.57
46303;BME280;32029;51.358;5.628;2023-06-22T02:56:43;101530.13;;;21.54;83.82
46303;BME280;32029;51.358;5.628;2023-06-22T02:59:12;101534.84;;;21.53;83.75
46303;BME280;32029;51.358;5.628;2023-06-22T03:01:39;101530.97;;;21.55;83.65
46303;BME280;32029;51.358;5.628;2023-06-22T03:04:09;101530.97;;;21.55;83.53
46303;BME280;32029;51.358;5.628;2023-06-22T03:06:36;101517.84;;;21.55;83.50
46303;BME280;32029;51.358;5.628;2023-06-22T03:09:04;101512.00;;;21.57;83.45
46303;BME280;32029;51.358;5.628;2023-06-22T03:11:32;101525.97;;;21.57;83.75
46303;BME280;32029;51.358;5.628;2023-06-22T03:14:00;101512.00;;;21.57;83.68
46303;BME280;32029;51.358;5.628;2023-06-22T03:16:28;101497.34;;;21.49;84.02
46303;BME280;32029;51.358;5.628;2023-06-22T03:18:55;101502.69;;;21.51;83.95
46303;BME280;32029;51.358;5.628;2023-06-22T03:21:23;101501.94;;;21.56;83.91
46303;BME280;32029;51.358;5.628;2023-06-22T03:23:50;101511.16;;;21.56;83.86
46303;BME280;32029;51.358;5.628;2023-06-22T03:26:17;101502.56;;;21.58;83.86
46303;BME280;32029;51.358;5.628;2023-06-22T03:28:45;101498.66;;;21.59;84.03
46303;BME280;32029;51.358;5.628;2023-06-22T03:31:12;101488.09;;;21.61;83.92
46303;BME280;32029;51.358;5.628;2023-06-22T03:33:39;101486.16;;;21.61;83.78
46303;BME280;32029;51.358;5.628;2023-06-22T03:36:05;101493.09;;;21.59;83.75
46303;BME280;32029;51.358;5.628;2023-06-22T03:38:33;101483.00;;;21.58;84.26
46303;BME280;32029;51.358;5.628;2023-06-22T03:41:00;101498.31;;;21.55;83.95
46303;BME280;32029;51.358;5.628;2023-06-22T03:43:27;101490.19;;;21.53;84.55
46303;BME280;32029;51.358;5.628;2023-06-22T03:45:54;101485.09;;;21.50;84.34
46303;BME280;32029;51.358;5.628;2023-06-22T03:48:21;101493.69;;;21.49;84.84
46303;BME280;32029;51.358;5.628;2023-06-22T03:50:47;101484.72;;;21.47;84.77
46303;BME280;32029;51.358;5.628;2023-06-22T03:53:14;101483.88;;;21.46;84.78
46303;BME280;32029;51.358;5.628;2023-06-22T03:55:48;101481.31;;;21.45;84.67
46303;BME280;32029;51.358;5.628;2023-06-22T03:58:20;101469.06;;;21.34;84.92
46303;BME280;32029;51.358;5.628;2023-06-22T04:00:49;101472.47;;;21.36;85.11
46303;BME280;32029;51.358;5.628;2023-06-22T04:03:17;101481.81;;;21.42;84.96
46303;BME280;32029;51.358;5.628;2023-06-22T04:05:48;101479.13;;;21.35;85.11
46303;BME280;32029;51.358;5.628;2023-06-22T04:08:15;101482.03;;;21.40;85.12
46303;BME280;32029;51.358;5.628;2023-06-22T04:10:42;101471.00;;;21.34;84.72
46303;BME280;32029;51.358;5.628;2023-06-22T04:13:09;101441.00;;;21.17;85.16
46303;BME280;32029;51.358;5.628;2023-06-22T04:15:36;101481.81;;;21.42;85.29
46303;BME280;32029;51.358;5.628;2023-06-22T04:18:04;101480.47;;;21.44;85.44
46303;BME280;32029;51.358;5.628;2023-06-22T04:20:31;101467.25;;;21.40;85.25
46303;BME280;32029;51.358;5.628;2023-06-22T04:22:58;101437.84;;;21.25;85.16
46303;BME280;32029;51.358;5.628;2023-06-22T04:25:25;101480.44;;;21.56;85.48
46303;BME280;32029;51.358;5.628;2023-06-22T04:27:52;101478.63;;;21.62;85.14
46303;BME280;32029;51.358;5.628;2023-06-22T04:30:19;101494.16;;;21.69;84.88
46303;BME280;32029;51.358;5.628;2023-06-22T04:32:46;101485.63;;;21.76;84.97
46303;BME280;32029;51.358;5.628;2023-06-22T04:35:22;101483.56;;;21.83;84.88
46303;BME280;32029;51.358;5.628;2023-06-22T04:37:49;101479.53;;;21.91;84.39
46303;BME280;32029;51.358;5.628;2023-06-22T04:40:16;101464.81;;;21.95;83.81
46303;BME280;32029;51.358;5.628;2023-06-22T04:42:43;101475.38;;;22.05;83.04
46303;BME280;32029;51.358;5.628;2023-06-22T04:45:20;101470.63;;;22.06;82.67
46303;BME280;32029;51.358;5.628;2023-06-22T04:47:47;101475.94;;;22.19;82.56
46303;BME280;32029;51.358;5.628;2023-06-22T04:50:14;101479.44;;;22.26;82.47
46303;BME280;32029;51.358;5.628;2023-06-22T04:52:42;101477.34;;;22.33;81.74
46303;BME280;32029;51.358;5.628;2023-06-22T04:55:08;101483.66;;;22.40;81.72
46303;BME280;32029;51.358;5.628;2023-06-22T04:57:35;101476.44;;;22.44;81.13
46303;BME280;32029;51.358;5.628;2023-06-22T05:00:06;101475.19;;;22.52;81.12
46303;BME280;32029;51.358;5.628;2023-06-22T05:02:39;101461.97;;;22.47;80.75
46303;BME280;32029;51.358;5.628;2023-06-22T05:05:06;101470.66;;;22.63;80.95
46303;BME280;32029;51.358;5.628;2023-06-22T05:07:34;101467.09;;;22.67;80.58
46303;BME280;32029;51.358;5.628;2023-06-22T05:10:02;101454.09;;;22.61;80.66
46303;BME280;32029;51.358;5.628;2023-06-22T05:12:30;101470.31;;;22.76;80.72
46303;BME280;32029;51.358;5.628;2023-06-22T05:14:59;101472.13;;;22.82;80.37
46303;BME280;32029;51.358;5.628;2023-06-22T05:17:27;101473.88;;;22.88;80.43
46303;BME280;32029;51.358;5.628;2023-06-22T05:19:54;101475.75;;;22.83;80.94
46303;BME280;32029;51.358;5.628;2023-06-22T05:22:22;101475.69;;;22.94;80.67
46303;BME280;32029;51.358;5.628;2023-06-22T05:24:50;101472.13;;;22.99;80.49
46303;BME280;32029;51.358;5.628;2023-06-22T05:27:18;101490.28;;;23.13;80.16
46303;BME280;32029;51.358;5.628;2023-06-22T05:29:47;101467.13;;;23.01;80.47
46303;BME280;32029;51.358;5.628;2023-06-22T05:32:15;101485.69;;;23.24;80.38
46303;BME280;32029;51.358;5.628;2023-06-22T05:34:42;101485.78;;;23.29;80.17
46303;BME280;32029;51.358;5.628;2023-06-22T05:37:10;101476.34;;;23.35;80.08
46303;BME280;32029;51.358;5.628;2023-06-22T05:39:37;101459.22;;;23.32;80.17
46303;BME280;32029;51.358;5.628;2023-06-22T05:42:07;101460.16;;;23.37;79.93
46303;BME280;32029;51.358;5.628;2023-06-22T05:44:35;101477.75;;;23.55;79.70
46303;BME280;32029;51.358;5.628;2023-06-22T05:47:05;101464.78;;;23.48;79.03
46303;BME280;32029;51.358;5.628;2023-06-22T05:49:33;101493.34;;;23.67;79.27
46303;BME280;32029;51.358;5.628;2023-06-22T05:52:00;101469.41;;;23.60;79.18
46303;BME280;32029;51.358;5.628;2023-06-22T05:54:28;101475.53;;;23.74;79.13
46303;BME280;32029;51.358;5.628;2023-06-22T05:56:56;101472.44;;;23.75;79.13
46303;BME280;32029;51.358;5.628;2023-06-22T05:59:29;101482.69;;;23.86;78.31
46303;BME280;32029;51.358;5.628;2023-06-22T06:01:59;101505.31;;;24.02;78.52
46303;BME280;32029;51.358;5.628;2023-06-22T06:04:27;101486.28;;;24.04;78.31
46303;BME280;32029;51.358;5.628;2023-06-22T06:06:55;101492.00;;;24.14;77.70
46303;BME280;32029;51.358;5.628;2023-06-22T06:09:22;101498.25;;;24.21;77.29
46303;BME280;32029;51.358;5.628;2023-06-22T06:11:50;101489.91;;;24.26;77.30
46303;BME280;32029;51.358;5.628;2023-06-22T06:14:17;101484.38;;;24.31;77.27
46303;BME280;32029;51.358;5.628;2023-06-22T06:16:45;101496.75;;;24.35;76.94
46303;BME280;32029;51.358;5.628;2023-06-22T06:19:13;101464.09;;;24.24;76.55
46303;BME280;32029;51.358;5.628;2023-06-22T06:21:41;101494.88;;;24.41;76.57
46303;BME280;32029;51.358;5.628;2023-06-22T06:24:08;101485.09;;;24.43;76.14
46303;BME280;32029;51.358;5.628;2023-06-22T06:26:36;101489.34;;;24.46;76.19
46303;BME280;32029;51.358;5.628;2023-06-22T06:29:03;101494.41;;;24.49;76.35
46303;BME280;32029;51.358;5.628;2023-06-22T06:31:31;101488.47;;;24.45;75.90
46303;BME280;32029;51.358;5.628;2023-06-22T06:33:59;101496.72;;;24.57;76.09
46303;BME280;32029;51.358;5.628;2023-06-22T06:36:30;101495.31;;;24.55;75.75
46303;BME280;32029;51.358;5.628;2023-06-22T06:39:04;101471.41;;;24.47;75.63
46303;BME280;32029;51.358;5.628;2023-06-22T06:41:32;101470.28;;;24.48;75.94
46303;BME280;32029;51.358;5.628;2023-06-22T06:44:00;101467.78;;;24.52;75.80
46303;BME280;32029;51.358;5.628;2023-06-22T06:46:28;101497.16;;;24.71;75.25
46303;BME280;32029;51.358;5.628;2023-06-22T06:48:55;101472.91;;;24.60;75.05
46303;BME280;32029;51.358;5.628;2023-06-22T06:51:30;101488.78;;;24.76;75.06
46303;BME280;32029;51.358;5.628;2023-06-22T06:53:57;101484.81;;;24.72;75.38
46303;BME280;32029;51.358;5.628;2023-06-22T06:56:26;101478.78;;;24.85;74.98
46303;BME280;32029;51.358;5.628;2023-06-22T06:58:52;101458.19;;;24.75;74.68
46303;BME280;32029;51.358;5.628;2023-06-22T07:01:20;101488.44;;;25.00;73.94
46303;BME280;32029;51.358;5.628;2023-06-22T07:03:47;101465.09;;;24.94;73.81
46303;BME280;32029;51.358;5.628;2023-06-22T07:06:15;101472.28;;;25.12;73.53
46303;BME280;32029;51.358;5.628;2023-06-22T07:08:44;101475.97;;;25.17;73.18
46303;BME280;32029;51.358;5.628;2023-06-22T07:11:11;101446.94;;;25.07;72.97
46303;BME280;32029;51.358;5.628;2023-06-22T07:13:39;101441.38;;;25.12;73.30
46303;BME280;32029;51.358;5.628;2023-06-22T07:16:07;101461.44;;;25.26;72.35
46303;BME280;32029;51.358;5.628;2023-06-22T07:18:34;101443.44;;;25.22;72.12
46303;BME280;32029;51.358;5.628;2023-06-22T07:21:03;101473.06;;;25.39;71.72
46303;BME280;32029;51.358;5.628;2023-06-22T07:23:34;101462.38;;;25.41;71.36
46303;BME280;32029;51.358;5.628;2023-06-22T07:26:01;101455.63;;;25.37;72.01
46303;BME280;32029;51.358;5.628;2023-06-22T07:28:28;101436.78;;;25.33;71.78
46303;BME280;32029;51.358;5.628;2023-06-22T07:31:04;101451.75;;;25.49;71.99
46303;BME280;32029;51.358;5.628;2023-06-22T07:33:31;101451.22;;;25.52;71.96
46303;BME280;32029;51.358;5.628;2023-06-22T07:36:02;101443.94;;;25.56;72.13
46303;BME280;32029;51.358;5.628;2023-06-22T07:38:34;101440.31;;;25.60;71.57
46303;BME280;32029;51.358;5.628;2023-06-22T07:41:02;101424.25;;;25.56;71.57
46303;BME280;32029;51.358;5.628;2023-06-22T07:43:32;101404.81;;;25.44;71.43
46303;BME280;32029;51.358;5.628;2023-06-22T07:46:00;101434.69;;;25.60;71.49
46303;BME280;32029;51.358;5.628;2023-06-22T07:48:28;101424.28;;;25.61;71.75
46303;BME280;32029;51.358;5.628;2023-06-22T07:50:57;101394.47;;;25.55;72.20
46303;BME280;32029;51.358;5.628;2023-06-22T07:53:24;101402.09;;;25.59;71.37
46303;BME280;32029;51.358;5.628;2023-06-22T07:55:53;101370.84;;;25.51;71.64
46303;BME280;32029;51.358;5.628;2023-06-22T07:58:21;101379.31;;;25.56;71.54
46303;BME280;32029;51.358;5.628;2023-06-22T08:00:48;101352.84;;;25.47;71.65
46303;BME280;32029;51.358;5.628;2023-06-22T08:03:16;101351.16;;;25.46;71.60
46303;BME280;32029;51.358;5.628;2023-06-22T08:05:43;101348.94;;;25.48;71.83
46303;BME280;32029;51.358;5.628;2023-06-22T08:08:10;101345.53;;;25.46;71.50
46303;BME280;32029;51.358;5.628;2023-06-22T08:10:38;101366.97;;;25.62;71.42
46303;BME280;32029;51.358;5.628;2023-06-22T08:13:06;101375.38;;;25.62;71.28
46303;BME280;32029;51.358;5.628;2023-06-22T08:15:33;101353.69;;;25.47;71.60
46303;BME280;32029;51.358;5.628;2023-06-22T08:18:01;101370.34;;;25.64;71.00
46303;BME280;32029;51.358;5.628;2023-06-22T08:20:28;101342.75;;;25.51;71.09
46303;BME280;32029;51.358;5.628;2023-06-22T08:22:56;101360.25;;;25.68;70.98
46303;BME280;32029;51.358;5.628;2023-06-22T08:25:24;101364.75;;;25.69;71.03
46303;BME280;32029;51.358;5.628;2023-06-22T08:27:52;101351.22;;;25.66;71.04
46303;BME280;32029;51.358;5.628;2023-06-22T08:30:20;101347.63;;;25.71;70.91
46303;BME280;32029;51.358;5.628;2023-06-22T08:32:48;101345.91;;;25.70;70.96
46303;BME280;32029;51.358;5.628;2023-06-22T08:35:17;101361.19;;;25.84;70.27
46303;BME280;32029;51.358;5.628;2023-06-22T08:37:45;101360.34;;;25.88;70.78
46303;BME280;32029;51.358;5.628;2023-06-22T08:40:19;101362.06;;;25.95;70.39
46303;BME280;32029;51.358;5.628;2023-06-22T08:42:47;101362.91;;;26.00;70.59
46303;BME280;32029;51.358;5.628;2023-06-22T08:45:14;101360.38;;;26.04;70.59
46303;BME280;32029;51.358;5.628;2023-06-22T08:47:41;101340.41;;;25.95;70.29
46303;BME280;32029;51.358;5.628;2023-06-22T08:50:11;101345.78;;;26.07;70.23
46303;BME280;32029;51.358;5.628;2023-06-22T08:52:39;101323.28;;;26.07;69.74
46303;BME280;32029;51.358;5.628;2023-06-22T08:55:08;101334.78;;;26.05;70.19
46303;BME280;32029;51.358;5.628;2023-06-22T08:57:37;101354.22;;;26.22;70.45
46303;BME280;32029;51.358;5.628;2023-06-22T09:00:07;101337.66;;;26.26;70.06
46303;BME280;32029;51.358;5.628;2023-06-22T09:02:46;101330.88;;;26.32;69.99
46303;BME280;32029;51.358;5.628;2023-06-22T09:05:13;101330.59;;;26.38;70.12
46303;BME280;32029;51.358;5.628;2023-06-22T09:07:39;101333.97;;;26.40;69.90
46303;BME280;32029;51.358;5.628;2023-06-22T09:10:07;101339.34;;;26.52;69.61
46303;BME280;32029;51.358;5.628;2023-06-22T09:12:34;101332.91;;;26.57;69.05
46303;BME280;32029;51.358;5.628;2023-06-22T09:15:02;101316.59;;;26.49;68.87
46303;BME280;32029;51.358;5.628;2023-06-22T09:17:30;101331.75;;;26.63;68.61
46303;BME280;32029;51.358;5.628;2023-06-22T09:19:56;101328.94;;;26.63;68.49
46303;BME280;32029;51.358;5.628;2023-06-22T09:22:24;101333.44;;;26.69;68.39
46303;BME280;32029;51.358;5.628;2023-06-22T09:24:56;101329.47;;;26.75;69.45
46303;BME280;32029;51.358;5.628;2023-06-22T09:27:23;101313.72;;;26.79;68.49
46303;BME280;32029;51.358;5.628;2023-06-22T09:29:51;101329.47;;;26.91;68.64
46303;BME280;32029;51.358;5.628;2023-06-22T09:32:18;101327.75;;;27.05;68.81
46303;BME280;32029;51.358;5.628;2023-06-22T09:34:46;101328.31;;;27.17;68.93
46303;BME280;32029;51.358;5.628;2023-06-22T09:37:13;101320.69;;;27.18;67.33
46303;BME280;32029;51.358;5.628;2023-06-22T09:39:40;101319.22;;;27.35;67.16
46303;BME280;32029;51.358;5.628;2023-06-22T09:42:08;101323.16;;;27.40;66.74
46303;BME280;32029;51.358;5.628;2023-06-22T09:44:36;101309.94;;;27.35;66.35
46303;BME280;32029;51.358;5.628;2023-06-22T09:47:04;101330.97;;;27.58;66.63
46303;BME280;32029;51.358;5.628;2023-06-22T09:49:31;101273.63;;;27.28;65.98
46303;BME280;32029;51.358;5.628;2023-06-22T09:51:58;101324.41;;;27.68;65.98
46303;BME280;32029;51.358;5.628;2023-06-22T09:54:25;101323.31;;;27.74;65.80
46303;BME280;32029;51.358;5.628;2023-06-22T09:56:52;101302.19;;;27.66;65.40
46303;BME280;32029;51.358;5.628;2023-06-22T09:59:20;101304.38;;;27.69;65.78
46303;BME280;32029;51.358;5.628;2023-06-22T10:01:47;101305.50;;;27.73;65.18
46303;BME280;32029;51.358;5.628;2023-06-22T10:04:14;101315.94;;;27.78;64.82
46303;BME280;32029;51.358;5.628;2023-06-22T10:06:41;101300.47;;;27.70;64.00
46303;BME280;32029;51.358;5.628;2023-06-22T10:09:07;101302.13;;;27.71;64.19
46303;BME280;32029;51.358;5.628;2023-06-22T10:11:35;101298.16;;;27.72;64.58
46303;BME280;32029;51.358;5.628;2023-06-22T10:14:03;101313.41;;;27.81;64.84
46303;BME280;32029;51.358;5.628;2023-06-22T10:16:31;101321.84;;;27.81;64.58
46303;BME280;32029;51.358;5.628;2023-06-22T10:18:58;101329.13;;;27.88;64.34
46303;BME280;32029;51.358;5.628;2023-06-22T10:21:25;101305.00;;;27.66;64.29
46303;BME280;32029;51.358;5.628;2023-06-22T10:23:55;101314.81;;;27.69;64.28
46303;BME280;32029;51.358;5.628;2023-06-22T10:26:22;101318.22;;;27.66;65.13
46303;BME280;32029;51.358;5.628;2023-06-22T10:28:50;101326.66;;;27.76;65.20
46303;BME280;32029;51.358;5.628;2023-06-22T10:31:18;101309.53;;;27.57;65.87
46303;BME280;32029;51.358;5.628;2023-06-22T10:33:45;101334.00;;;27.67;65.90
46303;BME280;32029;51.358;5.628;2023-06-22T10:36:12;101333.75;;;27.63;66.01
46303;BME280;32029;51.358;5.628;2023-06-22T10:38:40;101341.94;;;27.59;66.50
46303;BME280;32029;51.358;5.628;2023-06-22T10:41:06;101334.06;;;27.56;68.30
46303;BME280;32029;51.358;5.628;2023-06-22T10:43:33;101332.09;;;27.52;72.16
46303;BME280;32029;51.358;5.628;2023-06-22T10:46:01;101330.47;;;27.41;72.14
46303;BME280;32029;51.358;5.628;2023-06-22T10:48:29;101332.19;;;27.31;71.84
46303;BME280;32029;51.358;5.628;2023-06-22T10:50:56;101340.66;;;27.26;71.54
46303;BME280;32029;51.358;5.628;2023-06-22T10:53:23;101345.16;;;27.22;72.67
46303;BME280;32029;51.358;5.628;2023-06-22T10:55:49;101342.38;;;27.17;73.02
46303;BME280;32029;51.358;5.628;2023-06-22T10:58:20;101326.34;;;26.97;73.02
46303;BME280;32029;51.358;5.628;2023-06-22T11:00:47;101349.72;;;26.98;75.66
46303;BME280;32029;51.358;5.628;2023-06-22T11:03:14;101369.72;;;26.96;79.09
46303;BME280;32029;51.358;5.628;2023-06-22T11:05:40;101359.31;;;26.86;80.56
46303;BME280;32029;51.358;5.628;2023-06-22T11:08:10;101350.06;;;26.60;84.29
46303;BME280;32029;51.358;5.628;2023-06-22T11:10:37;101381.84;;;26.46;90.26
46303;BME280;32029;51.358;5.628;2023-06-22T11:13:04;101362.06;;;26.00;93.98
46303;BME280;32029;51.358;5.628;2023-06-22T11:15:31;101382.28;;;25.92;95.46
46303;BME280;32029;51.358;5.628;2023-06-22T11:17:58;101388.41;;;25.78;96.71
46303;BME280;32029;51.358;5.628;2023-06-22T11:20:25;101371.72;;;25.51;99.26
46303;BME280;32029;51.358;5.628;2023-06-22T11:22:52;101346.22;;;25.15;100.00
46303;BME280;32029;51.358;5.628;2023-06-22T11:25:20;101355.09;;;24.97;100.00
46303;BME280;32029;51.358;5.628;2023-06-22T11:27:47;101356.97;;;24.81;100.00
46303;BME280;32029;51.358;5.628;2023-06-22T11:30:14;101328.03;;;24.43;100.00
46303;BME280;32029;51.358;5.628;2023-06-22T11:32:40;101331.72;;;24.22;100.00
46303;BME280;32029;51.358;5.628;2023-06-22T11:35:07;101302.94;;;23.73;100.00
46303;BME280;32029;51.358;5.628;2023-06-22T11:37:34;101309.91;;;23.48;100.00
46303;BME280;32029;51.358;5.628;2023-06-22T11:40:01;101310.50;;;23.28;100.00
46303;BME280;32029;51.358;5.628;2023-06-22T11:42:31;101320.78;;;23.22;100.00
46303;BME280;32029;51.358;5.628;2023-06-22T11:44:58;101312.47;;;23.06;100.00
46303;BME280;32029;51.358;5.628;2023-06-22T11:47:25;101301.25;;;22.89;100.00
46303;BME280;32029;51.358;5.628;2023-06-22T11:49:52;101305.34;;;22.81;100.00
46303;BME280;32029;51.358;5.628;2023-06-22T11:52:18;101304.16;;;22.77;100.00
46303;BME280;32029;51.358;5.628;2023-06-22T11:54:46;101295.03;;;22.65;100.00
46303;BME280;32029;51.358;5.628;2023-06-22T11:57:13;101262.53;;;22.42;100.00
46303;BME280;32029;51.358;5.628;2023-06-22T11:59:39;101286.41;;;22.49;100.00
46303;BME280;32029;51.358;5.628;2023-06-22T12:02:06;101238.72;;;22.22;100.00
46303;BME280;32029;51.358;5.628;2023-06-22T12:04:35;101254.91;;;22.37;100.00
46303;BME280;32029;51.358;5.628;2023-06-22T12:07:02;101268.94;;;22.42;100.00
46303;BME280;32029;51.358;5.628;2023-06-22T12:09:29;101263.69;;;22.46;100.00
46303;BME280;32029;51.358;5.628;2023-06-22T12:11:56;101263.53;;;22.53;100.00
46303;BME280;32029;51.358;5.628;2023-06-22T12:14:22;101224.16;;;22.37;100.00
46303;BME280;32029;51.358;5.628;2023-06-22T12:16:49;101256.81;;;22.54;100.00
46303;BME280;32029;51.358;5.628;2023-06-22T12:19:16;101230.91;;;22.41;100.00
46303;BME280;32029;51.358;5.628;2023-06-22T12:21:43;101271.31;;;22.67;100.00
46303;BME280;32029;51.358;5.628;2023-06-22T12:24:12;101266.56;;;22.68;100.00
46303;BME280;32029;51.358;5.628;2023-06-22T12:26:40;101261.97;;;22.62;100.00
46303;BME280;32029;51.358;5.628;2023-06-22T12:29:06;101222.19;;;22.38;100.00
46303;BME280;32029;51.358;5.628;2023-06-22T12:31:35;101240.25;;;22.47;100.00
46303;BME280;32029;51.358;5.628;2023-06-22T12:34:02;101255.22;;;22.58;100.00
46303;BME280;32029;51.358;5.628;2023-06-22T12:36:29;101228.91;;;22.37;100.00
46303;BME280;32029;51.358;5.628;2023-06-22T12:38:55;101248.31;;;22.43;100.00
46303;BME280;32029;51.358;5.628;2023-06-22T12:41:23;101199.19;;;22.14;100.00
46303;BME280;32029;51.358;5.628;2023-06-22T12:43:51;101238.75;;;22.39;100.00
46303;BME280;32029;51.358;5.628;2023-06-22T12:46:19;101222.06;;;22.28;100.00
46303;BME280;32029;51.358;5.628;2023-06-22T12:48:46;101231.53;;;22.43;100.00
46303;BME280;32029;51.358;5.628;2023-06-22T12:51:20;101229.81;;;22.42;100.00
46303;BME280;32029;51.358;5.628;2023-06-22T12:53:47;101244.97;;;22.46;100.00
46303;BME280;32029;51.358;5.628;2023-06-22T12:56:15;101223.31;;;22.37;100.00